createdAt,value
2022-12-18T00:01:14.757Z,38.42
2022-12-18T00:03:41.935Z,39.65
2022-12-18T00:06:11.100Z,40.83
2022-12-18T00:11:07.041Z,37.33
2022-12-18T00:13:34.052Z,37.70
2022-12-18T00:16:05.178Z,38.60
2022-12-18T00:18:32.358Z,37.83
2022-12-18T00:21:07.913Z,39.80
2022-12-18T00:23:36.725Z,38.65
2022-12-18T00:26:06.748Z,39.70
2022-12-18T00:28:33.581Z,37.67
2022-12-18T00:31:08.871Z,38.58
2022-12-18T00:33:36.698Z,38.20
2022-12-18T00:36:08.993Z,38.87
2022-12-18T00:38:36.387Z,39.17
2022-12-18T00:41:03.790Z,38.35
2022-12-18T00:43:30.429Z,39.13
2022-12-18T00:45:57.142Z,39.67
2022-12-18T00:48:24.026Z,37.22
2022-12-18T00:50:51.265Z,37.80
2022-12-18T00:53:18.651Z,39.40
2022-12-18T00:55:46.096Z,38.67
2022-12-18T00:58:14.492Z,38.28
2022-12-18T01:00:41.839Z,39.20
2022-12-18T01:03:08.856Z,40.95
2022-12-18T01:05:35.563Z,39.25
2022-12-18T01:08:02.268Z,41.38
2022-12-18T01:10:28.960Z,40.00
2022-12-18T01:12:56.376Z,40.97
2022-12-18T01:15:23.031Z,40.30
2022-12-18T01:17:49.676Z,41.17
2022-12-18T01:20:16.680Z,40.53
2022-12-18T01:22:43.332Z,47.65
2022-12-18T01:25:10.144Z,40.30
2022-12-18T01:27:36.961Z,51.05
2022-12-18T01:30:04.060Z,46.35
2022-12-18T01:32:32.469Z,41.60
2022-12-18T01:34:59.466Z,41.20
2022-12-18T01:37:26.092Z,39.60
2022-12-18T01:39:55.214Z,41.25
2022-12-18T01:42:22.890Z,43.00
2022-12-18T01:44:58.329Z,43.65
2022-12-18T01:47:27.946Z,41.65
2022-12-18T01:49:56.116Z,38.53
2022-12-18T01:52:24.898Z,39.30
2022-12-18T01:54:52.633Z,39.88
2022-12-18T01:57:19.892Z,39.78
2022-12-18T01:59:51.705Z,37.03
2022-12-18T02:02:19.852Z,37.80
2022-12-18T02:04:49.620Z,40.42
2022-12-18T02:07:53.745Z,37.83
2022-12-18T02:10:43.881Z,36.88
2022-12-18T02:13:46.079Z,37.85
2022-12-18T02:16:22.041Z,35.10
2022-12-18T02:18:52.429Z,37.00
2022-12-18T02:21:35.948Z,37.72
2022-12-18T02:24:14.934Z,35.47
2022-12-18T02:26:50.408Z,36.72
2022-12-18T02:29:45.091Z,36.70
2022-12-18T02:32:18.762Z,35.45
2022-12-18T02:34:47.177Z,35.38
2022-12-18T02:37:17.144Z,35.83
2022-12-18T02:39:47.024Z,35.90
2022-12-18T02:42:14.011Z,35.03
2022-12-18T02:44:50.249Z,35.67
2022-12-18T02:47:20.250Z,36.88
2022-12-18T02:49:49.931Z,35.20
2022-12-18T02:52:25.899Z,35.50
2022-12-18T02:55:19.336Z,37.20
2022-12-18T02:57:56.222Z,36.05
2022-12-18T03:00:29.659Z,36.15
2022-12-18T03:03:07.983Z,35.33
2022-12-18T03:05:44.362Z,36.17
2022-12-18T03:08:20.264Z,36.00
2022-12-18T03:10:52.277Z,36.03
2022-12-18T03:13:29.160Z,35.28
2022-12-18T03:15:59.382Z,34.75
2022-12-18T03:18:42.060Z,35.47
2022-12-18T03:21:11.779Z,34.63
2022-12-18T03:23:43.742Z,33.40
2022-12-18T03:26:15.641Z,36.38
2022-12-18T03:28:57.537Z,34.95
2022-12-18T03:31:27.284Z,34.83
2022-12-18T03:34:04.262Z,36.50
2022-12-18T03:36:30.893Z,34.10
2022-12-18T03:38:57.573Z,34.10
2022-12-18T03:41:34.202Z,35.53
2022-12-18T03:44:27.735Z,34.95
2022-12-18T03:47:31.360Z,33.38
2022-12-18T03:50:17.660Z,34.63
2022-12-18T03:53:22.825Z,35.28
2022-12-18T03:55:51.446Z,34.17
2022-12-18T03:58:21.674Z,33.97
2022-12-18T04:00:50.492Z,32.35
2022-12-18T04:05:55.107Z,33.90
2022-12-18T04:08:23.290Z,32.47
2022-12-18T04:10:50.002Z,33.53
2022-12-18T04:13:24.561Z,31.67
2022-12-18T04:15:51.331Z,31.98
2022-12-18T04:18:18.037Z,32.63
2022-12-18T04:20:44.688Z,31.10
2022-12-18T04:23:11.310Z,30.40
2022-12-18T04:25:37.976Z,29.08
2022-12-18T04:28:04.739Z,29.63
2022-12-18T04:30:31.387Z,28.52
2022-12-18T04:32:58.076Z,28.67
2022-12-18T04:35:24.707Z,31.20
2022-12-18T04:37:51.336Z,28.67
2022-12-18T04:40:18.116Z,26.60
2022-12-18T04:42:44.919Z,27.58
2022-12-18T04:45:11.719Z,27.33
2022-12-18T04:47:38.330Z,27.75
2022-12-18T04:50:05.533Z,26.70
2022-12-18T04:52:32.746Z,25.55
2022-12-18T04:54:59.398Z,25.77
2022-12-18T04:57:26.042Z,25.00
2022-12-18T04:59:52.786Z,25.40
2022-12-18T05:02:19.551Z,23.90
2022-12-18T05:04:46.270Z,23.13
2022-12-18T05:07:12.905Z,23.88
2022-12-18T05:09:39.584Z,24.08
2022-12-18T05:12:06.432Z,22.90
2022-12-18T05:14:33.046Z,22.65
2022-12-18T05:17:01.203Z,22.00
2022-12-18T05:19:28.099Z,22.02
2022-12-18T05:21:54.848Z,22.52
2022-12-18T05:24:21.574Z,22.38
2022-12-18T05:26:48.218Z,22.15
2022-12-18T05:29:14.971Z,20.40
2022-12-18T05:31:41.757Z,21.42
2022-12-18T05:34:09.798Z,20.60
2022-12-18T05:36:37.831Z,20.08
2022-12-18T05:39:04.787Z,20.45
2022-12-18T05:41:32.716Z,20.38
2022-12-18T05:43:59.694Z,20.55
2022-12-18T05:46:26.867Z,19.15
2022-12-18T05:48:53.601Z,21.40
2022-12-18T05:51:22.835Z,19.60
2022-12-18T05:53:49.516Z,20.58
2022-12-18T05:56:22.731Z,20.23
2022-12-18T05:58:52.769Z,19.33
2022-12-18T06:01:22.650Z,19.00
2022-12-18T06:03:50.468Z,20.30
2022-12-18T06:06:25.802Z,19.88
2022-12-18T06:08:53.331Z,19.92
2022-12-18T06:11:23.470Z,18.90
2022-12-18T06:13:57.946Z,19.08
2022-12-18T06:16:25.797Z,19.40
2022-12-18T06:18:52.587Z,20.65
2022-12-18T06:21:19.746Z,20.58
2022-12-18T06:23:46.376Z,20.70
2022-12-18T06:26:13.850Z,21.45
2022-12-18T06:28:40.503Z,20.48
2022-12-18T06:31:07.713Z,20.95
2022-12-18T06:33:35.008Z,20.02
2022-12-18T06:36:06.543Z,21.15
2022-12-18T06:38:34.635Z,21.10
2022-12-18T06:41:01.333Z,22.10
2022-12-18T06:43:27.949Z,20.48
2022-12-18T06:46:01.970Z,20.48
2022-12-18T06:48:28.689Z,21.42
2022-12-18T06:50:55.492Z,21.20
2022-12-18T06:53:22.335Z,19.35
2022-12-18T06:55:49.388Z,19.63
2022-12-18T06:58:16.471Z,20.30
2022-12-18T07:00:43.178Z,19.85
2022-12-18T07:03:11.602Z,20.02
2022-12-18T07:05:42.250Z,19.10
2022-12-18T07:08:09.004Z,19.33
2022-12-18T07:10:48.251Z,19.90
2022-12-18T07:13:17.172Z,19.05
2022-12-18T07:15:44.884Z,18.45
2022-12-18T07:18:12.136Z,19.30
2022-12-18T07:20:39.048Z,19.98
2022-12-18T07:23:06.193Z,18.90
2022-12-18T07:25:36.755Z,18.35
2022-12-18T07:28:04.237Z,19.65
2022-12-18T07:30:30.891Z,18.73
2022-12-18T07:32:57.660Z,18.20
2022-12-18T07:35:25.439Z,18.35
2022-12-18T07:37:52.260Z,18.52
2022-12-18T07:40:18.889Z,18.77
2022-12-18T07:42:45.492Z,18.88
2022-12-18T07:45:12.305Z,19.50
2022-12-18T07:47:38.969Z,18.20
2022-12-18T07:50:06.698Z,19.50
2022-12-18T07:52:33.512Z,18.70
2022-12-18T07:55:00.854Z,18.88
2022-12-18T08:00:17.468Z,18.35
2022-12-18T08:02:44.575Z,19.48
2022-12-18T08:05:11.263Z,18.38
2022-12-18T08:07:38.009Z,19.50
2022-12-18T08:10:05.135Z,18.85
2022-12-18T08:12:33.237Z,18.42
2022-12-18T08:14:59.971Z,19.42
2022-12-18T08:17:26.636Z,19.20
2022-12-18T08:19:53.343Z,19.77
2022-12-18T08:22:22.263Z,19.55
2022-12-18T08:27:30.962Z,19.55
2022-12-18T08:29:58.635Z,19.70
2022-12-18T08:32:27.545Z,18.75
2022-12-18T08:37:20.946Z,18.90
2022-12-18T08:39:47.674Z,19.35
2022-12-18T08:42:33.316Z,19.75
2022-12-18T08:45:00.047Z,17.88
2022-12-18T08:47:27.089Z,19.00
2022-12-18T08:49:53.904Z,20.23
2022-12-18T08:52:20.524Z,18.20
2022-12-18T08:54:47.251Z,18.77
2022-12-18T08:57:13.952Z,18.85
2022-12-18T08:59:40.605Z,18.45
2022-12-18T09:02:07.537Z,19.02
2022-12-18T09:04:34.438Z,18.15
2022-12-18T09:07:01.376Z,17.95
2022-12-18T09:09:28.057Z,19.05
2022-12-18T09:11:54.696Z,17.90
2022-12-18T09:14:21.356Z,18.27
2022-12-18T09:16:48.201Z,18.48
2022-12-18T09:19:14.878Z,17.90
2022-12-18T09:21:47.525Z,17.55
2022-12-18T09:24:15.639Z,18.35
2022-12-18T09:26:42.631Z,17.00
2022-12-18T09:29:10.543Z,17.38
2022-12-18T09:31:39.031Z,18.13
2022-12-18T09:34:06.997Z,17.95
2022-12-18T09:36:33.979Z,17.93
2022-12-18T09:39:05.005Z,18.60
2022-12-18T09:41:43.231Z,17.35
2022-12-18T09:44:45.347Z,17.40
2022-12-18T09:47:29.607Z,16.67
2022-12-18T09:50:04.790Z,16.88
2022-12-18T09:52:36.747Z,17.42
2022-12-18T09:55:11.725Z,16.00
2022-12-18T09:57:46.242Z,16.80
2022-12-18T10:00:24.342Z,16.27
2022-12-18T10:03:04.362Z,16.17
2022-12-18T10:05:46.131Z,16.98
2022-12-18T10:08:25.897Z,16.75
2022-12-18T10:10:58.029Z,17.63
2022-12-18T10:13:47.873Z,16.65
2022-12-18T10:16:20.400Z,16.33
2022-12-18T10:19:05.574Z,16.77
2022-12-18T10:21:58.373Z,15.40
2022-12-18T10:24:34.940Z,15.13
2022-12-18T10:27:14.829Z,15.30
2022-12-18T10:29:43.806Z,14.80
2022-12-18T10:34:41.909Z,12.50
2022-12-18T10:37:17.733Z,15.18
2022-12-18T10:39:45.047Z,13.98
2022-12-18T10:42:19.818Z,14.18
2022-12-18T10:44:46.899Z,14.40
2022-12-18T10:47:19.168Z,13.23
2022-12-18T10:49:53.713Z,14.75
2022-12-18T10:52:23.396Z,14.73
2022-12-18T10:54:56.488Z,13.45
2022-12-18T10:57:35.219Z,13.48
2022-12-18T11:02:47.608Z,13.20
2022-12-18T11:05:30.970Z,13.80
2022-12-18T11:07:58.909Z,12.68
2022-12-18T11:10:38.631Z,12.93
2022-12-18T11:13:21.113Z,12.77
2022-12-18T11:15:48.273Z,12.57
2022-12-18T11:18:38.352Z,13.05
2022-12-18T11:21:11.029Z,12.93
2022-12-18T11:23:44.825Z,13.32
2022-12-18T11:26:11.502Z,13.93
2022-12-18T11:28:42.285Z,13.52
2022-12-18T11:31:16.193Z,13.70
2022-12-18T11:34:12.011Z,13.02
2022-12-18T11:36:45.938Z,13.80
2022-12-18T11:39:42.112Z,13.00
2022-12-18T11:42:13.360Z,13.10
2022-12-18T11:44:43.570Z,13.85
2022-12-18T11:47:22.970Z,12.27
2022-12-18T11:49:51.204Z,12.88
2022-12-18T11:52:25.315Z,12.80
2022-12-18T11:54:53.839Z,14.20
2022-12-18T11:57:23.425Z,12.95
2022-12-18T12:00:12.149Z,12.70
2022-12-18T12:08:00.577Z,13.20
2022-12-18T12:10:44.422Z,12.57
2022-12-18T12:13:20.122Z,13.20
2022-12-18T12:16:10.978Z,11.77
2022-12-18T12:18:46.933Z,13.23
2022-12-18T12:21:28.712Z,13.32
2022-12-18T12:24:16.535Z,11.98
2022-12-18T12:27:19.945Z,12.70
2022-12-18T12:30:05.646Z,13.10
2022-12-18T12:33:05.444Z,12.45
2022-12-18T12:35:56.303Z,13.43
2022-12-18T12:38:29.550Z,12.70
2022-12-18T12:41:03.414Z,12.63
2022-12-18T12:43:51.120Z,13.13
2022-12-18T12:46:22.240Z,12.55
2022-12-18T12:48:57.618Z,11.88
2022-12-18T12:51:40.258Z,13.48
2022-12-18T12:54:17.013Z,13.52
2022-12-18T12:57:05.939Z,12.98
2022-12-18T12:59:43.075Z,12.48
2022-12-18T13:02:43.575Z,12.75
2022-12-18T13:05:39.633Z,13.48
2022-12-18T13:08:12.274Z,12.50
2022-12-18T13:10:43.468Z,13.32
2022-12-18T13:13:13.080Z,14.20
2022-12-18T13:15:50.334Z,13.90
2022-12-18T13:18:21.364Z,13.48
2022-12-18T13:20:59.920Z,13.13
2022-12-18T13:23:35.960Z,13.70
2022-12-18T13:26:11.194Z,14.30
2022-12-18T13:28:47.359Z,14.70
2022-12-18T13:31:15.967Z,14.88
2022-12-18T13:36:35.151Z,15.05
2022-12-18T13:39:19.776Z,13.98
2022-12-18T13:41:52.441Z,15.32
2022-12-18T13:44:41.558Z,14.48
2022-12-18T13:47:33.447Z,13.93
2022-12-18T13:50:01.054Z,14.70
2022-12-18T13:52:34.371Z,14.40
2022-12-18T13:55:06.114Z,14.23
2022-12-18T13:57:35.929Z,13.30
2022-12-18T14:00:25.697Z,14.40
2022-12-18T14:02:53.377Z,14.98
2022-12-18T14:05:40.361Z,14.05
2022-12-18T14:08:15.969Z,15.02
2022-12-18T14:10:49.137Z,15.20
2022-12-18T14:13:29.089Z,14.80
2022-12-18T14:15:57.354Z,14.25
2022-12-18T14:18:31.134Z,14.75
2022-12-18T14:21:03.358Z,15.48
2022-12-18T14:23:30.048Z,15.80
2022-12-18T14:26:00.781Z,13.63
2022-12-18T14:28:30.640Z,15.02
2022-12-18T14:30:57.567Z,16.02
2022-12-18T14:33:29.498Z,15.30
2022-12-18T14:36:03.637Z,14.48
2022-12-18T14:38:31.612Z,16.10
2022-12-18T14:41:12.712Z,14.77
2022-12-18T14:43:41.950Z,16.00
2022-12-18T14:46:30.943Z,14.95
2022-12-18T14:51:27.520Z,16.05
2022-12-18T14:54:03.178Z,16.02
2022-12-18T14:56:36.382Z,16.80
2022-12-18T14:59:23.832Z,16.23
2022-12-18T15:02:00.252Z,15.50
2022-12-18T15:04:36.755Z,16.85
2022-12-18T15:07:06.115Z,15.52
2022-12-18T15:09:33.131Z,16.02
2022-12-18T15:12:01.702Z,15.95
2022-12-18T15:14:38.235Z,16.83
2022-12-18T15:17:20.711Z,16.27
2022-12-18T15:19:49.984Z,14.90
2022-12-18T15:22:27.470Z,15.65
2022-12-18T15:24:55.939Z,16.23
2022-12-18T15:27:24.047Z,15.73
2022-12-18T15:30:09.252Z,16.98
2022-12-18T15:32:38.271Z,16.00
2022-12-18T15:35:14.263Z,15.98
2022-12-18T15:37:41.452Z,14.90
2022-12-18T15:40:17.454Z,16.67
2022-12-18T15:43:03.363Z,15.57
2022-12-18T15:45:30.383Z,15.65
2022-12-18T15:47:57.357Z,16.08
2022-12-18T15:50:24.345Z,16.55
2022-12-18T15:52:53.098Z,16.80
2022-12-18T15:55:41.377Z,17.13
2022-12-18T15:58:10.552Z,16.25
2022-12-18T16:00:39.840Z,16.02
2022-12-18T16:03:07.684Z,17.25
2022-12-18T16:05:34.557Z,16.63
2022-12-18T16:08:01.240Z,16.58
2022-12-18T16:10:28.475Z,17.38
2022-12-18T16:12:55.427Z,16.27
2022-12-18T16:15:24.795Z,17.02
2022-12-18T16:17:52.698Z,16.25
2022-12-18T16:20:22.354Z,17.25
2022-12-18T16:22:50.283Z,16.98
2022-12-18T16:25:24.102Z,18.10
2022-12-18T16:27:51.738Z,16.60
2022-12-18T16:30:21.212Z,17.13
2022-12-18T16:32:47.988Z,17.52
2022-12-18T16:35:16.667Z,17.98
2022-12-18T16:37:43.745Z,19.13
2022-12-18T16:40:13.935Z,19.98
2022-12-18T16:42:42.452Z,18.95
2022-12-18T16:45:11.961Z,17.75
2022-12-18T16:47:39.733Z,18.08
2022-12-18T16:50:07.651Z,18.20
2022-12-18T16:52:35.043Z,19.27
2022-12-18T16:55:01.726Z,18.50
2022-12-18T16:57:28.351Z,20.48
2022-12-18T16:59:57.656Z,20.48
2022-12-18T17:02:28.225Z,17.45
2022-12-18T17:04:56.639Z,17.48
2022-12-18T17:07:24.239Z,18.80
2022-12-18T17:09:51.220Z,18.73
2022-12-18T17:12:18.336Z,19.73
2022-12-18T17:14:45.155Z,20.70
2022-12-18T17:17:22.788Z,20.73
2022-12-18T17:19:50.584Z,21.08
2022-12-18T17:22:17.579Z,22.35
2022-12-18T17:24:44.310Z,19.83
2022-12-18T17:27:11.029Z,19.25
2022-12-18T17:29:41.273Z,19.63
2022-12-18T17:32:10.432Z,19.48
2022-12-18T17:34:37.646Z,24.60
2022-12-18T17:37:04.356Z,20.52
2022-12-18T17:39:31.162Z,20.25
2022-12-18T17:41:59.362Z,19.55
2022-12-18T17:44:26.034Z,20.33
2022-12-18T17:46:52.810Z,25.05
2022-12-18T17:49:21.196Z,19.92
2022-12-18T17:51:47.882Z,20.25
2022-12-18T17:54:14.922Z,18.35
2022-12-18T17:56:41.872Z,19.90
2022-12-18T17:59:08.863Z,19.80
2022-12-18T18:01:42.430Z,20.05
2022-12-18T18:04:11.337Z,18.90
2022-12-18T18:06:39.372Z,20.30
2022-12-18T18:09:08.159Z,24.08
2022-12-18T18:12:05.696Z,19.58
2022-12-18T18:14:33.046Z,24.75
2022-12-18T18:17:04.685Z,24.25
2022-12-18T18:19:33.121Z,32.05
2022-12-18T18:21:59.851Z,24.57
2022-12-18T18:24:27.086Z,30.35
2022-12-18T18:26:59.917Z,33.60
2022-12-18T18:29:29.028Z,20.52
2022-12-18T18:31:56.847Z,28.33
2022-12-18T18:34:26.648Z,21.05
2022-12-18T18:36:53.287Z,21.15
2022-12-18T18:39:20.385Z,20.55
2022-12-18T18:41:48.683Z,21.35
2022-12-18T18:44:17.775Z,27.17
2022-12-18T18:46:44.779Z,21.48
2022-12-18T18:49:11.892Z,21.55
2022-12-18T18:51:38.575Z,21.73
2022-12-18T18:54:05.374Z,20.67
2022-12-18T18:59:19.438Z,21.38
2022-12-18T19:01:49.454Z,22.80
2022-12-18T19:04:16.361Z,20.65
2022-12-18T19:06:46.601Z,21.63
2022-12-18T19:09:13.967Z,21.30
2022-12-18T19:11:59.306Z,22.23
2022-12-18T19:14:26.054Z,20.35
2022-12-18T19:16:52.825Z,20.83
2022-12-18T19:19:23.531Z,22.38
2022-12-18T19:21:50.415Z,21.60
2022-12-18T19:24:17.102Z,20.08
2022-12-18T19:26:43.951Z,40.92
2022-12-18T19:29:11.885Z,22.83
2022-12-18T19:31:38.586Z,26.97
2022-12-18T19:34:06.996Z,21.73
2022-12-18T19:36:36.080Z,27.42
2022-12-18T19:39:14.993Z,21.30
2022-12-18T19:41:43.369Z,23.92
2022-12-18T19:44:13.051Z,23.38
2022-12-18T19:49:10.126Z,22.08
2022-12-18T19:51:36.794Z,22.30
2022-12-18T19:54:03.575Z,23.00
2022-12-18T19:56:32.874Z,22.83
2022-12-18T19:59:00.299Z,25.70
2022-12-18T20:01:28.988Z,25.13
2022-12-18T20:06:33.904Z,22.52
2022-12-18T20:09:06.009Z,23.00
2022-12-18T20:11:34.691Z,24.45
2022-12-18T20:14:09.279Z,24.15
2022-12-18T20:16:36.084Z,24.90
2022-12-18T20:19:04.031Z,24.95
2022-12-18T20:21:31.086Z,24.35
2022-12-18T20:23:59.858Z,23.98
2022-12-18T20:28:54.567Z,26.10
2022-12-18T20:31:22.312Z,26.65
2022-12-18T20:33:50.983Z,24.83
2022-12-18T20:38:50.116Z,27.27
2022-12-18T20:41:20.091Z,33.78
2022-12-18T20:43:47.651Z,25.83
2022-12-18T20:46:16.065Z,25.60
2022-12-18T20:48:43.512Z,25.30
2022-12-18T20:51:14.538Z,25.25
2022-12-18T20:53:42.139Z,24.65
2022-12-18T20:56:12.333Z,24.00
2022-12-18T20:58:39.070Z,25.65
2022-12-18T21:01:13.060Z,24.15
2022-12-18T21:03:41.541Z,24.13
2022-12-18T21:06:10.275Z,25.30
2022-12-18T21:08:38.315Z,25.38
2022-12-18T21:11:38.712Z,23.93
2022-12-18T21:14:12.159Z,25.23
2022-12-18T21:16:40.041Z,24.02
2022-12-18T21:19:06.911Z,24.50
2022-12-18T21:21:35.082Z,24.75
2022-12-18T21:24:06.593Z,24.15
2022-12-18T21:26:33.854Z,24.95
2022-12-18T21:29:03.691Z,24.35
2022-12-18T21:31:33.204Z,32.22
2022-12-18T21:34:02.470Z,27.45
2022-12-18T21:36:30.002Z,24.88
2022-12-18T21:38:57.304Z,25.90
2022-12-18T21:41:43.965Z,26.55
2022-12-18T21:44:16.090Z,26.30
2022-12-18T21:46:44.741Z,27.60
2022-12-18T21:49:14.545Z,27.77
2022-12-18T21:51:41.310Z,27.30
2022-12-18T21:54:08.007Z,25.92
2022-12-18T21:57:00.248Z,28.10
2022-12-18T21:59:32.346Z,28.40
2022-12-18T22:02:01.728Z,28.73
2022-12-18T22:04:28.933Z,28.10
2022-12-18T22:06:58.676Z,27.10
2022-12-18T22:11:56.602Z,27.73
2022-12-18T22:14:23.388Z,28.67
2022-12-18T22:16:51.296Z,28.42
2022-12-18T22:19:23.704Z,28.80
2022-12-18T22:21:59.311Z,34.75
2022-12-18T22:24:26.888Z,29.80
2022-12-18T22:27:02.093Z,29.55
2022-12-18T22:29:47.793Z,31.00
2022-12-18T22:32:22.091Z,28.75
2022-12-18T22:35:05.951Z,28.10
2022-12-18T22:37:33.992Z,29.83
2022-12-18T22:40:07.232Z,28.83
2022-12-18T22:42:34.199Z,31.13
2022-12-18T22:45:04.055Z,28.48
2022-12-18T22:47:30.917Z,30.48
2022-12-18T22:49:58.220Z,27.88
2022-12-18T22:52:25.472Z,28.60
2022-12-18T22:54:53.669Z,28.38
2022-12-18T22:57:22.086Z,29.25
2022-12-18T22:59:49.834Z,30.20
2022-12-18T23:02:17.965Z,27.95
2022-12-18T23:04:45.180Z,28.95
2022-12-18T23:07:12.553Z,28.55
2022-12-18T23:09:39.859Z,29.20
2022-12-18T23:12:07.205Z,29.23
2022-12-18T23:14:33.904Z,29.45
2022-12-18T23:17:00.550Z,29.10
2022-12-18T23:19:27.287Z,29.20
2022-12-18T23:21:54.855Z,29.45
2022-12-18T23:24:25.391Z,30.23
2022-12-18T23:26:52.125Z,30.52
2022-12-18T23:29:19.352Z,28.83
2022-12-18T23:31:46.237Z,28.98
2022-12-18T23:34:14.146Z,28.40
2022-12-18T23:36:46.291Z,28.73
2022-12-18T23:39:15.325Z,27.17
2022-12-18T23:42:00.442Z,31.08
2022-12-18T23:44:27.648Z,29.50
2022-12-18T23:46:54.728Z,29.65
2022-12-18T23:49:21.546Z,28.60
2022-12-18T23:51:48.883Z,29.25
2022-12-18T23:54:15.806Z,29.90
2022-12-18T23:56:42.458Z,28.10
2022-12-18T23:59:09.249Z,28.70
